Taunsa Weather



Taunsa's Current Weather

Temprature 9.93o clear sky

clear sky

Rain: 0 %

Min Temprature9.93o
Max Temprature9.93o
Humidity42
Wind Speed3.43 m/h
Sun Rise07:14:47
Sun Set17:40:23
Current Time: 18-Jan-2021 05:56:43
Lat/Lon: 30.7048, 70.6505




Taunsa's Geo Location



Taunsa's Weather Forecast

Time Overall Temp Min Temp Max Temp Humidity Wind Speed Rain
18-Jan-2021 (Mon)
08:00:00 clear sky 10.610 10.520 10.610 40 3.49 m/h 0 %
11:00:00 clear sky 16.440 16.440 18.020 28 4.13 m/h 0 %
14:00:00 clear sky 20.630 20.630 21.310 22 3.93 m/h 0 %
17:00:00 clear sky 19.560 19.560 19.630 24 2.77 m/h 0 %
20:00:00 clear sky 12.730 12.730 12.730 39 1.44 m/h 0 %
23:00:00 clear sky 11.350 11.350 11.350 42 1.16 m/h 0 %
19-Jan-2021 (Tue)
02:00:00 clear sky 10.650 10.650 10.650 43 1.2 m/h 0 %
05:00:00 clear sky 9.260 9.260 9.260 47 0.36 m/h 0 %
08:00:00 clear sky 10.830 10.830 10.830 43 0.7 m/h 0 %
11:00:00 clear sky 19.950 19.950 19.950 23 1.49 m/h 0 %
14:00:00 clear sky 23.090 23.090 23.090 18 1.57 m/h 0 %
17:00:00 clear sky 20.770 20.770 20.770 22 1.56 m/h 0 %
20:00:00 clear sky 15.350 15.350 15.350 31 1.58 m/h 0 %
23:00:00 clear sky 12.660 12.660 12.660 37 0.99 m/h 0 %
20-Jan-2021 (Wed)
02:00:00 clear sky 11.240 11.240 11.240 40 0.49 m/h 0 %
05:00:00 clear sky 10.390 10.390 10.390 42 0.63 m/h 0 %
08:00:00 clear sky 12.240 12.240 12.240 39 0.88 m/h 0 %
11:00:00 clear sky 21.450 21.450 21.450 21 1.41 m/h 0 %
14:00:00 clear sky 24.600 24.600 24.600 17 1.68 m/h 0 %
17:00:00 clear sky 22.080 22.080 22.080 21 1.63 m/h 0 %
20:00:00 few clouds 16.220 16.220 16.220 30 1.57 m/h 0 %
23:00:00 clear sky 14.050 14.050 14.050 34 1.34 m/h 0 %
21-Jan-2021 (Thu)
02:00:00 clear sky 13.730 13.730 13.730 35 2.06 m/h 0 %
05:00:00 clear sky 12.000 12.000 12.000 38 1.36 m/h 0 %
08:00:00 clear sky 12.610 12.610 12.610 38 0.59 m/h 0 %
11:00:00 clear sky 21.470 21.470 21.470 21 1.37 m/h 0 %
14:00:00 clear sky 24.860 24.860 24.860 17 2.34 m/h 0 %
17:00:00 clear sky 22.320 22.320 22.320 21 1.11 m/h 0 %
20:00:00 clear sky 16.210 16.210 16.210 30 1.05 m/h 0 %
23:00:00 clear sky 15.600 15.600 15.600 31 2.43 m/h 0 %
22-Jan-2021 (Fri)
02:00:00 clear sky 14.800 14.800 14.800 32 3.08 m/h 0 %
05:00:00 clear sky 13.600 13.600 13.600 35 3.58 m/h 0 %
08:00:00 clear sky 13.020 13.020 13.020 37 4.25 m/h 0 %
11:00:00 clear sky 20.220 20.220 20.220 23 5.34 m/h 0 %
14:00:00 scattered clouds 23.530 23.530 23.530 19 3.67 m/h 0 %
17:00:00 broken clouds 21.200 21.200 21.200 23 0.98 m/h 0 %
20:00:00 overcast clouds 14.520 14.520 14.520 34 0.96 m/h 0 %
23:00:00 broken clouds 15.300 15.300 15.300 31 3.44 m/h 0 %
23-Jan-2021 (Sat)
02:00:00 scattered clouds 12.940 12.940 12.940 34 2.76 m/h 0 %
05:00:00 few clouds 11.550 11.550 11.550 33 3.36 m/h 0 %

Famous Cities (60)